createdAt,value
2022-11-02T00:01:24.017Z,13.85
2022-11-02T00:03:52.596Z,13.57
2022-11-02T00:06:20.799Z,13.48
2022-11-02T00:08:49.086Z,13.40
2022-11-02T00:11:18.752Z,13.82
2022-11-02T00:13:47.324Z,13.52
2022-11-02T00:16:16.856Z,13.92
2022-11-02T00:18:45.753Z,13.66
2022-11-02T00:21:14.899Z,13.69
2022-11-02T00:23:43.541Z,13.49
2022-11-02T00:26:11.760Z,13.33
2022-11-02T00:28:41.418Z,13.70
2022-11-02T00:31:10.104Z,13.43
2022-11-02T00:33:38.459Z,13.29
2022-11-02T00:36:06.915Z,13.32
2022-11-02T00:38:35.329Z,13.20
2022-11-02T00:41:03.704Z,13.22
2022-11-02T00:43:32.148Z,13.06
2022-11-02T00:46:02.159Z,13.37
2022-11-02T00:48:30.547Z,13.03
2022-11-02T00:50:58.850Z,13.03
2022-11-02T00:53:27.445Z,12.98
2022-11-02T00:55:55.835Z,13.00
2022-11-02T00:58:24.264Z,13.06
2022-11-02T01:00:52.469Z,13.15
2022-11-02T01:03:22.307Z,13.55
2022-11-02T01:05:50.467Z,13.38
2022-11-02T01:08:18.965Z,13.36
2022-11-02T01:10:48.409Z,13.36
2022-11-02T01:13:17.079Z,13.30
2022-11-02T01:15:45.320Z,13.28
2022-11-02T01:18:14.151Z,13.23
2022-11-02T01:20:43.797Z,13.53
2022-11-02T01:23:12.291Z,13.18
2022-11-02T01:25:46.252Z,13.54
2022-11-02T01:28:14.802Z,13.14
2022-11-02T01:30:43.071Z,13.20
2022-11-02T01:33:12.203Z,13.05
2022-11-02T01:35:40.376Z,12.99
2022-11-02T01:38:10.290Z,13.36
2022-11-02T01:40:39.356Z,13.15
2022-11-02T01:43:21.752Z,13.61
2022-11-02T01:45:51.153Z,13.13
2022-11-02T01:48:21.274Z,13.13
2022-11-02T01:50:50.213Z,13.04
2022-11-02T01:53:19.882Z,13.18
2022-11-02T01:55:48.283Z,12.95
2022-11-02T01:58:16.757Z,12.80
2022-11-02T02:00:45.176Z,12.92
2022-11-02T02:03:17.810Z,13.17
2022-11-02T02:05:49.170Z,13.18
2022-11-02T02:08:20.874Z,13.13
2022-11-02T02:10:49.038Z,12.72
2022-11-02T02:13:18.122Z,12.90
2022-11-02T02:15:50.973Z,13.16
2022-11-02T02:18:25.070Z,13.12
2022-11-02T02:21:04.072Z,13.15
2022-11-02T02:23:50.087Z,13.28
2022-11-02T02:26:41.729Z,13.43
2022-11-02T02:29:13.063Z,13.05
2022-11-02T02:31:44.649Z,13.08
2022-11-02T02:34:17.612Z,13.08
2022-11-02T02:36:49.240Z,12.97
2022-11-02T02:39:21.219Z,12.95
2022-11-02T02:41:56.003Z,13.06
2022-11-02T02:44:30.074Z,13.06
2022-11-02T02:47:00.705Z,12.95
2022-11-02T02:49:31.702Z,12.94
2022-11-02T02:52:00.947Z,12.79
2022-11-02T02:54:33.013Z,12.93
2022-11-02T02:57:05.097Z,12.86
2022-11-02T02:59:38.043Z,12.86
2022-11-02T03:02:07.586Z,12.74
2022-11-02T03:04:36.046Z,12.48
2022-11-02T03:07:04.507Z,12.54
2022-11-02T03:09:36.946Z,12.95
2022-11-02T03:12:12.941Z,12.97
2022-11-02T03:14:49.844Z,12.96
2022-11-02T03:17:19.327Z,12.74
2022-11-02T03:19:52.660Z,12.88
2022-11-02T03:22:26.423Z,12.88
2022-11-02T03:25:01.427Z,12.91
2022-11-02T03:27:36.747Z,13.03
2022-11-02T03:30:09.871Z,13.07
2022-11-02T03:32:40.846Z,13.09
2022-11-02T03:35:14.357Z,13.20
2022-11-02T03:37:46.404Z,13.07
2022-11-02T03:40:18.474Z,13.09
2022-11-02T03:42:47.268Z,12.91
2022-11-02T03:45:20.085Z,13.24
2022-11-02T03:47:50.976Z,13.24
2022-11-02T03:50:22.851Z,13.29
2022-11-02T03:52:57.233Z,13.28
2022-11-02T03:55:30.022Z,13.26
2022-11-02T03:57:59.245Z,13.05
2022-11-02T04:00:31.543Z,13.35
2022-11-02T04:03:04.196Z,13.24
2022-11-02T04:05:34.254Z,13.21
2022-11-02T04:08:20.443Z,13.05
2022-11-02T04:11:06.679Z,12.86
2022-11-02T04:13:52.744Z,12.96
2022-11-02T04:16:27.551Z,13.11
2022-11-02T04:19:14.151Z,12.85
2022-11-02T04:22:03.085Z,12.88
2022-11-02T04:24:48.715Z,12.78
2022-11-02T04:27:20.912Z,12.78
2022-11-02T04:29:49.608Z,12.78
2022-11-02T04:32:39.945Z,13.08
2022-11-02T04:35:08.498Z,13.00
2022-11-02T04:37:58.351Z,13.22
2022-11-02T04:40:26.717Z,12.91
2022-11-02T04:42:55.074Z,12.83
2022-11-02T04:45:23.361Z,12.80
2022-11-02T04:47:52.952Z,13.07
2022-11-02T04:50:21.036Z,12.67
2022-11-02T04:52:56.891Z,13.17
2022-11-02T04:55:25.112Z,12.63
2022-11-02T04:57:53.467Z,12.46
2022-11-02T05:00:22.716Z,12.56
2022-11-02T05:02:52.644Z,12.63
2022-11-02T05:05:20.896Z,12.20
2022-11-02T05:07:49.300Z,12.11
2022-11-02T05:10:17.588Z,12.07
2022-11-02T05:12:45.895Z,11.93
2022-11-02T05:15:14.065Z,11.97
2022-11-02T05:17:42.504Z,11.88
2022-11-02T05:20:12.511Z,12.25
2022-11-02T05:22:43.363Z,12.21
2022-11-02T05:25:11.745Z,11.92
2022-11-02T05:27:40.214Z,11.82
2022-11-02T05:30:09.109Z,12.00
2022-11-02T05:32:37.531Z,11.96
2022-11-02T05:35:06.345Z,12.03
2022-11-02T05:37:36.179Z,12.27
2022-11-02T05:40:04.982Z,12.07
2022-11-02T05:42:33.391Z,12.12
2022-11-02T05:45:03.203Z,12.53
2022-11-02T05:47:31.497Z,12.23
2022-11-02T05:49:59.627Z,12.22
2022-11-02T05:52:27.957Z,12.27
2022-11-02T05:54:57.414Z,12.70
2022-11-02T05:57:25.773Z,12.47
2022-11-02T05:59:54.049Z,12.48
2022-11-02T06:02:24.756Z,12.43
2022-11-02T06:04:53.903Z,13.46
2022-11-02T06:07:22.242Z,12.65
2022-11-02T06:09:50.357Z,12.74
2022-11-02T06:12:20.264Z,13.07
2022-11-02T06:14:48.354Z,12.84
2022-11-02T06:17:16.587Z,12.92
2022-11-02T06:19:44.696Z,12.96
2022-11-02T06:22:12.996Z,12.90
2022-11-02T06:24:41.246Z,12.97
2022-11-02T06:27:09.586Z,13.08
2022-11-02T06:29:39.560Z,13.47
2022-11-02T06:32:07.779Z,13.32
2022-11-02T06:34:36.012Z,13.39
2022-11-02T06:37:04.265Z,13.43
2022-11-02T06:39:32.429Z,13.57
2022-11-02T06:42:00.662Z,13.69
2022-11-02T06:44:28.878Z,13.87
2022-11-02T06:46:59.643Z,14.31
2022-11-02T06:49:27.837Z,14.09
2022-11-02T06:51:56.172Z,14.14
2022-11-02T06:54:24.415Z,14.48
2022-11-02T06:56:52.772Z,14.66
2022-11-02T06:59:21.053Z,14.93
2022-11-02T07:01:54.059Z,15.32
2022-11-02T07:04:23.883Z,16.36
2022-11-02T07:06:52.151Z,16.86
2022-11-02T07:09:20.289Z,17.69
2022-11-02T07:11:48.507Z,18.52
2022-11-02T07:14:16.651Z,19.18
2022-11-02T07:16:45.157Z,19.58
2022-11-02T07:19:13.338Z,19.87
2022-11-02T07:21:46.557Z,20.49
2022-11-02T07:24:16.135Z,21.03
2022-11-02T07:26:44.573Z,21.90
2022-11-02T07:29:12.668Z,23.01
2022-11-02T07:31:41.367Z,24.02
2022-11-02T07:34:14.055Z,24.65
2022-11-02T07:36:46.354Z,25.14
2022-11-02T07:39:14.563Z,25.28
2022-11-02T07:41:45.661Z,25.89
2022-11-02T07:44:16.900Z,26.46
2022-11-02T07:46:45.394Z,27.01
2022-11-02T07:49:17.314Z,27.48
2022-11-02T07:51:50.107Z,28.01
2022-11-02T07:54:18.181Z,28.27
2022-11-02T07:56:46.647Z,29.01
2022-11-02T07:59:14.803Z,29.60
2022-11-02T08:01:43.217Z,29.99
2022-11-02T08:04:11.609Z,30.09
2022-11-02T08:06:40.070Z,30.37
2022-11-02T08:09:09.604Z,30.96
2022-11-02T08:11:58.245Z,31.11
2022-11-02T08:14:26.263Z,31.28
2022-11-02T08:16:54.808Z,31.48
2022-11-02T08:19:23.217Z,32.00
2022-11-02T08:21:51.454Z,32.44
2022-11-02T08:24:21.188Z,33.17
2022-11-02T08:26:52.316Z,32.95
2022-11-02T08:29:23.431Z,32.56
2022-11-02T08:31:51.696Z,32.21
2022-11-02T08:34:20.077Z,32.02
2022-11-02T08:36:48.297Z,32.46
2022-11-02T08:39:19.160Z,32.68
2022-11-02T08:41:48.834Z,33.36
2022-11-02T08:44:17.404Z,33.63
2022-11-02T08:46:45.705Z,33.90
2022-11-02T08:49:14.160Z,34.08
2022-11-02T08:51:42.394Z,34.25
2022-11-02T08:54:10.936Z,34.12
2022-11-02T08:56:39.196Z,34.54
2022-11-02T08:59:09.679Z,35.16
2022-11-02T09:01:39.160Z,34.77
2022-11-02T09:04:07.618Z,34.51
2022-11-02T09:06:35.819Z,33.95
2022-11-02T09:09:04.147Z,33.75
2022-11-02T09:11:32.293Z,34.08
2022-11-02T09:14:00.639Z,34.62
2022-11-02T09:16:30.127Z,35.61
2022-11-02T09:18:58.485Z,35.82
2022-11-02T09:21:26.739Z,36.40
2022-11-02T09:23:55.206Z,37.06
2022-11-02T09:26:23.305Z,37.59
2022-11-02T09:28:51.676Z,37.87
2022-11-02T09:31:19.812Z,37.95
2022-11-02T09:33:49.566Z,38.22
2022-11-02T09:36:17.716Z,37.74
2022-11-02T09:38:46.125Z,36.60
2022-11-02T09:41:17.664Z,35.68
2022-11-02T09:43:54.995Z,35.58
2022-11-02T09:46:25.725Z,36.11
2022-11-02T09:48:58.235Z,36.92
2022-11-02T09:51:29.553Z,36.77
2022-11-02T09:54:04.879Z,37.34
2022-11-02T09:56:33.615Z,37.38
2022-11-02T09:59:04.293Z,37.85
2022-11-02T10:01:55.549Z,38.52
2022-11-02T10:04:50.504Z,38.16
2022-11-02T10:07:25.599Z,37.23
2022-11-02T10:09:56.102Z,37.19
2022-11-02T10:12:29.578Z,38.17
2022-11-02T10:15:03.916Z,38.71
2022-11-02T10:17:35.784Z,38.77
2022-11-02T10:20:08.538Z,39.22
2022-11-02T10:22:39.368Z,39.34
2022-11-02T10:25:09.152Z,39.27
2022-11-02T10:27:40.082Z,39.73
2022-11-02T10:30:12.399Z,39.87
2022-11-02T10:35:40.698Z,40.50
2022-11-02T10:38:16.726Z,40.93
2022-11-02T10:41:00.435Z,41.18
2022-11-02T10:43:36.312Z,41.28
2022-11-02T10:46:20.804Z,41.01
2022-11-02T10:48:57.647Z,40.58
2022-11-02T10:51:27.583Z,40.25
2022-11-02T10:53:55.858Z,40.14
2022-11-02T10:56:25.294Z,40.57
2022-11-02T10:59:00.623Z,40.93
2022-11-02T11:01:30.965Z,40.87
2022-11-02T11:04:01.179Z,40.51
2022-11-02T11:06:33.449Z,40.09
2022-11-02T11:09:04.482Z,39.60
2022-11-02T11:11:34.702Z,39.19
2022-11-02T11:16:55.431Z,38.11
2022-11-02T11:22:28.642Z,38.19
2022-11-02T11:25:25.850Z,38.38
2022-11-02T11:27:56.456Z,37.86
2022-11-02T11:30:58.504Z,37.32
2022-11-02T11:33:16.447Z,36.16
2022-11-02T11:35:49.401Z,35.47
2022-11-02T11:38:21.273Z,35.36
2022-11-02T11:40:53.961Z,34.92
2022-11-02T11:43:24.481Z,33.43
2022-11-02T11:46:01.919Z,31.34
2022-11-02T11:48:36.829Z,29.01
2022-11-02T11:51:06.281Z,27.33
2022-11-02T11:53:38.773Z,26.34
2022-11-02T11:56:07.417Z,25.42
2022-11-02T11:58:36.196Z,24.80
2022-11-02T12:01:10.716Z,24.50
2022-11-02T12:03:53.294Z,24.25
2022-11-02T12:06:26.883Z,23.85
2022-11-02T12:09:04.550Z,23.44
2022-11-02T12:11:48.549Z,23.32
2022-11-02T12:14:29.590Z,23.06
2022-11-02T12:17:10.789Z,22.94
2022-11-02T12:19:51.993Z,22.68
2022-11-02T12:22:25.359Z,22.39
2022-11-02T12:25:30.200Z,22.34
2022-11-02T12:28:04.621Z,21.96
2022-11-02T12:30:37.981Z,21.67
2022-11-02T12:33:10.072Z,21.37
2022-11-02T12:36:06.824Z,21.65
2022-11-02T12:39:08.264Z,21.60
2022-11-02T12:41:46.333Z,21.47
2022-11-02T12:44:35.556Z,21.43
2022-11-02T12:47:09.976Z,21.17
2022-11-02T12:49:42.852Z,21.19
2022-11-02T12:52:22.857Z,21.52
2022-11-02T12:54:55.349Z,21.56
2022-11-02T12:57:27.061Z,21.55
2022-11-02T12:59:59.225Z,21.51
2022-11-02T13:02:30.366Z,21.37
2022-11-02T13:05:01.843Z,21.49
2022-11-02T13:07:33.509Z,21.43
2022-11-02T13:10:04.792Z,21.44
2022-11-02T13:12:37.493Z,21.49
2022-11-02T13:15:11.796Z,21.18
2022-11-02T13:17:44.255Z,21.25
2022-11-02T13:20:17.300Z,21.17
2022-11-02T13:22:48.728Z,20.98
2022-11-02T13:25:19.818Z,21.00
2022-11-02T13:27:50.403Z,21.43
2022-11-02T13:30:19.776Z,20.76
2022-11-02T13:32:51.619Z,20.88
2022-11-02T13:35:30.958Z,20.61
2022-11-02T13:38:05.700Z,20.57
2022-11-02T13:40:38.197Z,20.39
2022-11-02T13:43:42.049Z,20.49
2022-11-02T13:46:20.087Z,20.16
2022-11-02T13:48:56.191Z,20.15
2022-11-02T13:51:32.634Z,20.04
2022-11-02T13:54:03.121Z,19.78
2022-11-02T13:56:31.595Z,19.57
2022-11-02T13:59:03.946Z,19.78
2022-11-02T14:01:34.271Z,19.55
2022-11-02T14:04:07.443Z,19.50
2022-11-02T14:06:46.171Z,19.56
2022-11-02T14:09:26.091Z,19.40
2022-11-02T14:12:12.711Z,19.51
2022-11-02T14:14:42.637Z,19.17
2022-11-02T14:17:15.081Z,19.21
2022-11-02T14:19:55.584Z,19.23
2022-11-02T14:22:23.903Z,18.66
2022-11-02T14:25:17.504Z,19.13
2022-11-02T14:27:45.988Z,18.58
2022-11-02T14:30:47.601Z,19.02
2022-11-02T14:33:42.442Z,18.87
2022-11-02T14:36:19.673Z,18.47
2022-11-02T14:38:56.284Z,18.41
2022-11-02T14:41:48.633Z,18.44
2022-11-02T14:44:45.542Z,18.46
2022-11-02T14:47:16.485Z,18.18
2022-11-02T14:49:49.598Z,18.29
2022-11-02T14:52:36.170Z,18.45
2022-11-02T14:55:06.887Z,18.08
2022-11-02T14:57:37.039Z,17.96
2022-11-02T15:00:07.613Z,18.05
2022-11-02T15:02:43.007Z,18.01
2022-11-02T15:05:24.028Z,18.04
2022-11-02T15:07:55.584Z,18.04
2022-11-02T15:10:37.911Z,18.53
2022-11-02T15:13:43.545Z,18.25
2022-11-02T15:16:27.308Z,18.12
2022-11-02T15:19:36.619Z,18.15
2022-11-02T15:22:30.223Z,18.04
2022-11-02T15:25:00.987Z,17.59
2022-11-02T15:27:29.854Z,17.41
2022-11-02T15:29:58.919Z,17.39
2022-11-02T15:32:28.266Z,17.41
2022-11-02T15:34:58.544Z,17.44
2022-11-02T15:37:29.565Z,17.26
2022-11-02T15:39:58.546Z,17.86
2022-11-02T15:42:38.980Z,17.59
2022-11-02T15:45:34.224Z,17.55
2022-11-02T15:48:17.902Z,17.40
2022-11-02T15:50:54.230Z,17.34
2022-11-02T15:53:38.410Z,17.30
2022-11-02T15:56:25.221Z,17.35
2022-11-02T15:59:12.530Z,17.27
2022-11-02T16:01:41.631Z,16.84
2022-11-02T16:04:18.465Z,16.94
2022-11-02T16:06:49.568Z,16.70
2022-11-02T16:09:32.473Z,16.97
2022-11-02T16:12:05.369Z,16.72
2022-11-02T16:14:33.712Z,16.27
2022-11-02T16:17:02.138Z,16.14
2022-11-02T16:19:30.198Z,16.05
2022-11-02T16:22:01.543Z,16.22
2022-11-02T16:24:30.067Z,15.87
2022-11-02T16:26:58.789Z,15.83
2022-11-02T16:29:30.909Z,16.18
2022-11-02T16:31:59.410Z,15.80
2022-11-02T16:34:29.953Z,16.01
2022-11-02T16:37:00.334Z,15.93
2022-11-02T16:39:30.497Z,15.77
2022-11-02T16:42:00.577Z,15.66
2022-11-02T16:44:29.902Z,15.56
2022-11-02T16:47:00.136Z,15.50
2022-11-02T16:49:29.473Z,15.30
2022-11-02T16:52:00.361Z,15.32
2022-11-02T16:54:42.234Z,15.69
2022-11-02T16:57:13.827Z,15.87
2022-11-02T16:59:51.645Z,15.45
2022-11-02T17:02:21.125Z,15.17
2022-11-02T17:07:22.640Z,15.32
2022-11-02T17:09:54.097Z,15.26
2022-11-02T17:12:25.130Z,15.21
2022-11-02T17:14:53.421Z,15.63
2022-11-02T17:17:36.637Z,15.33
2022-11-02T17:20:18.170Z,15.20
2022-11-02T17:22:51.568Z,15.43
2022-11-02T17:25:22.608Z,14.96
2022-11-02T17:27:51.507Z,14.83
2022-11-02T17:30:45.028Z,15.25
2022-11-02T17:33:28.451Z,15.11
2022-11-02T17:35:58.348Z,14.71
2022-11-02T17:38:28.664Z,14.85
2022-11-02T17:40:57.160Z,14.52
2022-11-02T17:43:24.317Z,14.41
2022-11-02T17:45:57.150Z,14.78
2022-11-02T17:48:25.693Z,14.38
2022-11-02T17:50:55.395Z,14.34
2022-11-02T17:53:24.221Z,14.27
2022-11-02T17:55:54.542Z,14.38
2022-11-02T17:58:22.700Z,14.02
2022-11-02T18:00:53.937Z,14.06
2022-11-02T18:03:25.378Z,14.24
2022-11-02T18:05:59.822Z,14.03
2022-11-02T18:08:28.282Z,13.95
2022-11-02T18:10:58.261Z,14.26
2022-11-02T18:13:26.311Z,14.00
2022-11-02T18:15:54.785Z,13.94
2022-11-02T18:18:23.215Z,13.95
2022-11-02T18:20:51.613Z,13.92
2022-11-02T18:23:20.506Z,13.91
2022-11-02T18:25:49.081Z,13.91
2022-11-02T18:28:18.678Z,14.15
2022-11-02T18:30:47.077Z,13.79
2022-11-02T18:33:15.624Z,13.88
2022-11-02T18:35:44.321Z,13.82
2022-11-02T18:38:12.971Z,13.70
2022-11-02T18:40:41.610Z,13.67
2022-11-02T18:43:10.051Z,13.63
2022-11-02T18:45:40.270Z,13.93
2022-11-02T18:48:09.794Z,13.60
2022-11-02T18:50:38.493Z,13.60
2022-11-02T18:53:06.715Z,13.55
2022-11-02T18:55:35.113Z,13.47
2022-11-02T18:58:03.551Z,13.47
2022-11-02T19:00:32.182Z,13.32
2022-11-02T19:03:01.914Z,13.60
2022-11-02T19:05:59.549Z,13.27
2022-11-02T19:08:45.254Z,13.15
2022-11-02T19:11:13.736Z,13.15
2022-11-02T19:13:41.861Z,13.13
2022-11-02T19:16:10.278Z,13.16
2022-11-02T19:18:39.794Z,13.47
2022-11-02T19:21:08.304Z,13.30
2022-11-02T19:23:36.714Z,13.34
2022-11-02T19:26:06.713Z,13.39
2022-11-02T19:28:34.918Z,13.39
2022-11-02T19:31:06.041Z,13.69
2022-11-02T19:33:34.231Z,13.44
2022-11-02T19:36:04.169Z,13.63
2022-11-02T19:38:37.431Z,13.76
2022-11-02T19:41:09.904Z,13.54
2022-11-02T19:43:39.116Z,13.31
2022-11-02T19:46:08.711Z,13.49
2022-11-02T19:48:36.912Z,13.41
2022-11-02T19:51:09.216Z,13.80
2022-11-02T19:53:38.352Z,13.73
2022-11-02T19:56:10.499Z,13.84
2022-11-02T19:58:39.438Z,13.54
2022-11-02T20:01:09.497Z,13.72
2022-11-02T20:03:38.455Z,13.50
2022-11-02T20:06:11.742Z,13.71
2022-11-02T20:08:40.236Z,13.38
2022-11-02T20:11:09.860Z,13.49
2022-11-02T20:13:40.448Z,13.59
2022-11-02T20:16:09.566Z,13.33
2022-11-02T20:18:39.798Z,13.41
2022-11-02T20:21:12.669Z,13.46
2022-11-02T20:23:41.759Z,13.05
2022-11-02T20:26:12.053Z,13.01
2022-11-02T20:28:41.809Z,12.93
2022-11-02T20:31:11.469Z,12.86
2022-11-02T20:33:40.920Z,12.88
2022-11-02T20:36:11.572Z,12.93
2022-11-02T20:38:42.243Z,12.51
2022-11-02T20:41:12.477Z,12.78
2022-11-02T20:43:41.912Z,12.69
2022-11-02T20:46:36.556Z,12.67
2022-11-02T20:49:09.045Z,13.30
2022-11-02T20:51:51.448Z,12.69
2022-11-02T20:54:20.194Z,12.41
2022-11-02T20:56:48.910Z,12.34
2022-11-02T20:59:17.123Z,12.34
2022-11-02T21:01:46.061Z,12.28
2022-11-02T21:04:20.232Z,12.30
2022-11-02T21:06:51.285Z,12.45
2022-11-02T21:09:19.535Z,12.32
2022-11-02T21:12:05.775Z,12.37
2022-11-02T21:14:33.942Z,12.44
2022-11-02T21:17:03.224Z,12.42
2022-11-02T21:19:31.402Z,12.49
2022-11-02T21:22:01.180Z,12.81
2022-11-02T21:24:29.725Z,12.64
2022-11-02T21:26:58.336Z,12.81
2022-11-02T21:29:26.475Z,12.86
2022-11-02T21:31:54.906Z,12.88
2022-11-02T21:34:23.071Z,12.88
2022-11-02T21:36:51.449Z,12.75
2022-11-02T21:39:20.867Z,13.03
2022-11-02T21:41:49.545Z,12.58
2022-11-02T21:44:17.630Z,12.43
2022-11-02T21:46:46.195Z,12.44
2022-11-02T21:49:14.277Z,12.53
2022-11-02T21:51:43.033Z,12.47
2022-11-02T21:54:11.486Z,12.47
2022-11-02T21:56:41.387Z,12.68
2022-11-02T21:59:10.178Z,12.37
2022-11-02T22:01:49.431Z,12.40
2022-11-02T22:04:19.608Z,12.56
2022-11-02T22:06:48.270Z,12.39
2022-11-02T22:09:16.428Z,12.29
2022-11-02T22:11:46.413Z,12.51
2022-11-02T22:14:15.229Z,12.19
2022-11-02T22:16:44.707Z,12.30
2022-11-02T22:19:13.701Z,12.02
2022-11-02T22:21:43.847Z,12.05
2022-11-02T22:24:12.468Z,11.83
2022-11-02T22:26:41.316Z,11.90
2022-11-02T22:29:11.420Z,12.08
2022-11-02T22:31:41.674Z,11.92
2022-11-02T22:34:12.020Z,11.83
2022-11-02T22:36:41.976Z,11.80
2022-11-02T22:39:11.976Z,11.83
2022-11-02T22:41:41.411Z,11.76
2022-11-02T22:44:12.255Z,11.96
2022-11-02T22:46:41.677Z,11.75
2022-11-02T22:49:11.262Z,11.71
2022-11-02T22:51:41.312Z,11.59
2022-11-02T22:54:11.803Z,11.58
2022-11-02T22:56:40.212Z,11.49
2022-11-02T22:59:08.481Z,11.42
2022-11-02T23:01:38.601Z,11.69
2022-11-02T23:04:07.990Z,11.70
2022-11-02T23:06:36.455Z,11.56
2022-11-02T23:09:05.065Z,11.86
2022-11-02T23:11:35.529Z,11.91
2022-11-02T23:14:05.609Z,11.98
2022-11-02T23:16:35.054Z,11.92
2022-11-02T23:19:27.628Z,11.89
2022-11-02T23:22:14.991Z,11.69
2022-11-02T23:25:02.399Z,11.58
2022-11-02T23:27:30.991Z,11.37
2022-11-02T23:30:16.620Z,11.27
2022-11-02T23:32:44.810Z,11.22
2022-11-02T23:35:32.208Z,11.53
2022-11-02T23:38:05.348Z,11.64
2022-11-02T23:40:34.178Z,11.17
2022-11-02T23:43:03.273Z,11.17
2022-11-02T23:45:31.954Z,11.04
2022-11-02T23:48:01.448Z,11.01
2022-11-02T23:50:50.676Z,11.29
2022-11-02T23:53:38.269Z,11.05
2022-11-02T23:56:42.077Z,10.92
2022-11-02T23:59:10.176Z,10.61
